createdAt,value
2022-12-03T00:00:12.791Z,31.20
2022-12-03T00:03:06.224Z,40.20
2022-12-03T00:05:41.832Z,43.90
2022-12-03T00:08:20.902Z,45.20
2022-12-03T00:10:53.591Z,40.80
2022-12-03T00:13:26.312Z,32.20
2022-12-03T00:15:59.134Z,42.30
2022-12-03T00:18:31.938Z,38.00
2022-12-03T00:21:04.856Z,42.10
2022-12-03T00:23:42.008Z,35.00
2022-12-03T00:26:15.201Z,51.20
2022-12-03T00:28:48.311Z,40.70
2022-12-03T00:31:23.569Z,49.40
2022-12-03T00:33:56.688Z,53.50
2022-12-03T00:36:29.509Z,45.30
2022-12-03T00:39:02.369Z,40.70
2022-12-03T00:41:35.084Z,43.00
2022-12-03T00:44:08.099Z,37.50
2022-12-03T00:46:40.832Z,38.90
2022-12-03T00:49:13.780Z,38.50
2022-12-03T00:51:46.530Z,19.00
2022-12-03T00:54:19.272Z,40.00
2022-12-03T00:56:51.934Z,37.80
2022-12-03T00:59:24.762Z,34.20
2022-12-03T01:01:57.683Z,31.30
2022-12-03T01:04:30.515Z,44.30
2022-12-03T01:07:03.482Z,36.60
2022-12-03T01:09:36.396Z,37.90
2022-12-03T01:12:09.355Z,42.70
2022-12-03T01:14:42.271Z,35.30
2022-12-03T01:17:15.041Z,46.30
2022-12-03T01:19:48.609Z,34.40
2022-12-03T01:22:21.479Z,30.20
2022-12-03T01:24:54.331Z,43.70
2022-12-03T01:27:28.008Z,43.10
2022-12-03T01:30:00.796Z,49.90
2022-12-03T01:32:33.501Z,35.00
2022-12-03T01:35:07.378Z,46.60
2022-12-03T01:37:40.175Z,45.80
2022-12-03T01:40:20.685Z,44.70
2022-12-03T01:45:26.709Z,25.70
2022-12-03T01:47:59.682Z,43.50
2022-12-03T01:50:35.964Z,15.90
2022-12-03T01:53:11.819Z,25.70
2022-12-03T01:55:48.636Z,33.60
2022-12-03T01:58:31.253Z,45.20
2022-12-03T02:01:08.210Z,30.20
2022-12-03T02:03:41.433Z,37.60
2022-12-03T02:06:19.183Z,35.90
2022-12-03T02:08:59.060Z,36.00
2022-12-03T02:11:36.170Z,38.30
2022-12-03T02:14:15.174Z,30.20
2022-12-03T02:16:48.105Z,43.30
2022-12-03T02:19:26.281Z,33.90
2022-12-03T02:22:12.675Z,33.20
2022-12-03T02:24:53.317Z,32.90
2022-12-03T02:27:26.630Z,28.80
2022-12-03T02:29:59.675Z,27.40
2022-12-03T02:32:32.591Z,31.70
2022-12-03T02:35:05.708Z,33.20
2022-12-03T02:37:39.852Z,35.10
2022-12-03T02:40:18.468Z,38.60
2022-12-03T02:42:54.745Z,26.20
2022-12-03T02:45:31.063Z,33.20
2022-12-03T02:48:07.929Z,30.50
2022-12-03T02:50:47.026Z,17.60
2022-12-03T02:53:23.631Z,27.40
2022-12-03T02:55:59.258Z,28.60
2022-12-03T02:58:34.294Z,36.20
2022-12-03T03:01:09.202Z,37.40
2022-12-03T03:03:42.724Z,32.10
2022-12-03T03:06:16.071Z,34.20
2022-12-03T03:08:49.478Z,33.50
2022-12-03T03:11:22.186Z,24.80
2022-12-03T03:13:54.969Z,31.30
2022-12-03T03:16:28.147Z,34.70
2022-12-03T03:19:01.109Z,34.40
2022-12-03T03:21:33.887Z,38.30
2022-12-03T03:24:07.457Z,29.10
2022-12-03T03:26:40.206Z,36.10
2022-12-03T03:29:13.103Z,26.50
2022-12-03T03:31:47.143Z,31.40
2022-12-03T03:34:20.056Z,34.50
2022-12-03T03:36:52.829Z,36.20
2022-12-03T03:39:26.037Z,19.20
2022-12-03T03:41:58.730Z,29.00
2022-12-03T03:44:32.953Z,34.50
2022-12-03T03:47:05.944Z,36.10
2022-12-03T03:49:38.928Z,35.60
2022-12-03T03:52:13.576Z,37.40
2022-12-03T03:54:46.423Z,21.80
2022-12-03T03:57:19.187Z,38.40
2022-12-03T03:59:51.803Z,35.50
2022-12-03T04:02:28.474Z,32.90
2022-12-03T04:05:01.610Z,32.90
2022-12-03T04:07:34.581Z,35.60
2022-12-03T04:10:38.817Z,38.10
2022-12-03T04:13:12.084Z,39.40
2022-12-03T04:15:44.788Z,39.00
2022-12-03T04:18:34.852Z,37.80
2022-12-03T04:21:24.854Z,23.50
2022-12-03T04:23:57.658Z,29.80
2022-12-03T04:26:47.825Z,28.90
2022-12-03T04:29:23.998Z,37.30
2022-12-03T04:32:14.208Z,32.50
2022-12-03T04:35:04.475Z,34.00
2022-12-03T04:37:37.298Z,25.90
2022-12-03T04:40:26.218Z,38.60
2022-12-03T04:42:58.887Z,26.40
2022-12-03T04:45:31.650Z,47.10
2022-12-03T04:48:04.660Z,34.40
2022-12-03T04:50:37.509Z,29.80
2022-12-03T04:53:11.181Z,35.00
2022-12-03T04:55:43.932Z,39.40
2022-12-03T04:58:16.631Z,30.50
2022-12-03T05:00:49.323Z,29.30
2022-12-03T05:03:22.009Z,41.00
2022-12-03T05:05:54.730Z,37.10
2022-12-03T05:08:27.370Z,37.70
2022-12-03T05:11:00.014Z,39.00
2022-12-03T05:13:32.673Z,46.80
2022-12-03T05:16:05.485Z,34.10
2022-12-03T05:18:38.224Z,31.80
2022-12-03T05:21:11.161Z,39.50
2022-12-03T05:23:44.959Z,46.10
2022-12-03T05:26:17.591Z,42.00
2022-12-03T05:28:50.282Z,42.20
2022-12-03T05:31:23.067Z,35.40
2022-12-03T05:33:56.017Z,36.70
2022-12-03T05:36:28.637Z,36.20
2022-12-03T05:39:01.265Z,37.60
2022-12-03T05:41:51.538Z,42.80
2022-12-03T05:44:24.214Z,43.30
2022-12-03T05:46:56.938Z,38.10
2022-12-03T05:49:29.624Z,38.70
2022-12-03T05:52:02.311Z,46.20
2022-12-03T05:54:35.105Z,39.60
2022-12-03T05:57:08.304Z,34.80
2022-12-03T05:59:41.004Z,34.20
2022-12-03T06:02:13.743Z,41.30
2022-12-03T06:04:46.767Z,42.80
2022-12-03T06:07:19.568Z,41.30
2022-12-03T06:09:52.293Z,35.10
2022-12-03T06:12:25.060Z,37.50
2022-12-03T06:14:57.827Z,34.00
2022-12-03T06:17:30.746Z,38.10
2022-12-03T06:20:03.692Z,40.20
2022-12-03T06:22:36.502Z,35.80
2022-12-03T06:25:11.409Z,42.40
2022-12-03T06:27:44.360Z,37.90
2022-12-03T06:30:18.048Z,32.90
2022-12-03T06:32:50.781Z,35.60
2022-12-03T06:35:23.539Z,31.30
2022-12-03T06:37:56.368Z,37.00
2022-12-03T06:40:29.128Z,39.00
2022-12-03T06:43:01.996Z,39.30
2022-12-03T06:45:35.940Z,39.40
2022-12-03T06:48:09.730Z,37.20
2022-12-03T06:50:42.392Z,39.60
2022-12-03T06:53:15.197Z,41.80
2022-12-03T06:55:47.897Z,37.30
2022-12-03T06:58:20.605Z,29.50
2022-12-03T07:00:53.363Z,36.90
2022-12-03T07:03:26.120Z,30.80
2022-12-03T07:05:58.936Z,38.60
2022-12-03T07:08:31.673Z,37.50
2022-12-03T07:11:04.402Z,42.00
2022-12-03T07:13:37.119Z,32.30
2022-12-03T07:16:10.635Z,35.20
2022-12-03T07:18:43.295Z,34.30
2022-12-03T07:21:16.041Z,36.40
2022-12-03T07:23:48.824Z,32.20
2022-12-03T07:26:21.500Z,40.40
2022-12-03T07:28:54.247Z,32.50
2022-12-03T07:31:27.262Z,31.20
2022-12-03T07:34:00.977Z,36.10
2022-12-03T07:36:33.771Z,37.90
2022-12-03T07:39:06.805Z,35.00
2022-12-03T07:41:39.517Z,38.60
2022-12-03T07:44:14.769Z,44.90
2022-12-03T07:46:47.965Z,44.30
2022-12-03T07:49:20.898Z,30.30
2022-12-03T07:51:54.948Z,44.00
2022-12-03T07:54:27.794Z,110.00
2022-12-03T07:57:01.845Z,105.70
2022-12-03T07:59:34.832Z,92.90
2022-12-03T08:02:07.653Z,78.80
2022-12-03T08:04:40.456Z,60.10
2022-12-03T08:07:13.229Z,54.30
2022-12-03T08:09:46.069Z,76.10
2022-12-03T08:12:23.839Z,58.40
2022-12-03T08:14:57.318Z,44.90
2022-12-03T08:17:30.769Z,37.90
2022-12-03T08:20:03.479Z,33.20
2022-12-03T08:22:36.273Z,34.50
2022-12-03T08:25:26.571Z,38.80
2022-12-03T08:28:13.528Z,29.80
2022-12-03T08:30:50.518Z,29.40
2022-12-03T08:33:29.691Z,36.90
2022-12-03T08:36:07.450Z,39.20
2022-12-03T08:38:40.178Z,33.90
2022-12-03T08:41:37.638Z,25.60
2022-12-03T08:44:27.303Z,35.40
2022-12-03T08:47:08.488Z,46.80
2022-12-03T08:49:41.769Z,42.10
2022-12-03T08:52:20.331Z,35.20
2022-12-03T08:54:57.354Z,40.40
2022-12-03T08:57:32.866Z,38.30
2022-12-03T09:00:20.642Z,36.80
2022-12-03T09:02:55.782Z,35.10
2022-12-03T09:05:33.629Z,41.40
2022-12-03T09:08:06.524Z,28.50
2022-12-03T09:10:39.497Z,28.60
2022-12-03T09:13:12.443Z,35.60
2022-12-03T09:15:45.286Z,34.60
2022-12-03T09:18:18.874Z,39.30
2022-12-03T09:20:51.558Z,34.70
2022-12-03T09:23:24.353Z,43.90
2022-12-03T09:25:57.214Z,48.70
2022-12-03T09:28:30.121Z,45.60
2022-12-03T09:31:04.756Z,42.80
2022-12-03T09:33:37.594Z,44.80
2022-12-03T09:36:11.050Z,48.60
2022-12-03T09:38:47.638Z,49.30
2022-12-03T09:41:21.079Z,38.50
2022-12-03T09:44:15.813Z,49.10
2022-12-03T09:46:49.352Z,44.60
2022-12-03T09:49:22.333Z,44.20
2022-12-03T09:51:58.884Z,45.50
2022-12-03T09:54:33.616Z,45.30
2022-12-03T09:57:08.224Z,40.60
2022-12-03T09:59:41.170Z,52.00
2022-12-03T10:02:21.335Z,66.70
2022-12-03T10:04:55.555Z,56.20
2022-12-03T10:07:28.996Z,49.40
2022-12-03T10:10:01.859Z,49.70
2022-12-03T10:12:35.694Z,43.90
2022-12-03T10:15:12.964Z,58.00
2022-12-03T10:17:47.010Z,39.90
2022-12-03T10:20:23.612Z,47.20
2022-12-03T10:22:56.463Z,43.80
2022-12-03T10:25:29.339Z,38.50
2022-12-03T10:28:05.483Z,40.90
2022-12-03T10:30:38.318Z,49.90
2022-12-03T10:33:19.302Z,50.80
2022-12-03T10:35:52.435Z,51.40
2022-12-03T10:38:26.748Z,43.90
2022-12-03T10:41:01.168Z,41.60
2022-12-03T10:43:34.072Z,44.70
2022-12-03T10:46:21.035Z,47.30
2022-12-03T10:51:50.732Z,48.50
2022-12-03T10:54:26.315Z,41.40
2022-12-03T10:56:59.343Z,44.10
2022-12-03T10:59:35.400Z,45.50
2022-12-03T11:02:21.172Z,43.70
2022-12-03T11:04:55.115Z,53.60
2022-12-03T11:07:28.430Z,45.10
2022-12-03T11:10:02.918Z,44.40
2022-12-03T11:12:35.844Z,42.10
2022-12-03T11:15:39.582Z,41.40
2022-12-03T11:18:12.335Z,46.50
2022-12-03T11:21:15.243Z,44.70
2022-12-03T11:24:23.612Z,41.50
2022-12-03T11:27:28.915Z,36.00
2022-12-03T11:30:05.763Z,41.30
2022-12-03T11:33:21.840Z,42.60
2022-12-03T11:36:16.133Z,42.50
2022-12-03T11:38:56.405Z,45.70
2022-12-03T11:41:35.930Z,36.70
2022-12-03T11:44:37.030Z,51.30
2022-12-03T11:47:19.356Z,43.30
2022-12-03T11:49:52.745Z,42.10
2022-12-03T11:52:40.817Z,41.90
2022-12-03T11:55:28.419Z,39.20
2022-12-03T11:58:04.359Z,44.00
2022-12-03T12:00:37.202Z,44.60
2022-12-03T12:03:24.605Z,51.50
2022-12-03T12:06:10.380Z,45.60
2022-12-03T12:08:56.237Z,50.50
2022-12-03T12:11:34.147Z,46.10
2022-12-03T12:14:08.053Z,51.10
2022-12-03T12:16:58.576Z,46.30
2022-12-03T12:19:43.973Z,50.80
2022-12-03T12:22:33.965Z,51.70
2022-12-03T12:25:21.402Z,49.10
2022-12-03T12:27:55.259Z,48.70
2022-12-03T12:30:28.088Z,46.50
2022-12-03T12:33:19.311Z,48.90
2022-12-03T12:35:52.179Z,46.70
2022-12-03T12:38:25.524Z,48.50
2022-12-03T12:40:58.418Z,49.00
2022-12-03T12:43:33.892Z,51.30
2022-12-03T12:46:46.500Z,47.60
2022-12-03T12:49:13.620Z,44.90
2022-12-03T12:51:49.847Z,41.60
2022-12-03T12:54:22.777Z,44.50
2022-12-03T12:56:55.548Z,41.00
2022-12-03T12:59:30.123Z,45.80
2022-12-03T13:02:08.552Z,49.00
2022-12-03T13:04:42.961Z,49.10
2022-12-03T13:07:15.758Z,54.50
2022-12-03T13:09:54.809Z,44.00
2022-12-03T13:12:28.120Z,47.30
2022-12-03T13:15:04.078Z,52.70
2022-12-03T13:17:36.853Z,48.50
2022-12-03T13:20:21.971Z,53.40
2022-12-03T13:22:58.377Z,48.40
2022-12-03T13:26:00.225Z,46.00
2022-12-03T13:28:33.923Z,40.90
2022-12-03T13:31:23.262Z,43.20
2022-12-03T13:33:57.903Z,44.10
2022-12-03T13:36:40.617Z,40.90
2022-12-03T13:39:24.673Z,50.30
2022-12-03T13:42:30.105Z,45.70
2022-12-03T13:45:07.850Z,45.30
2022-12-03T13:47:41.281Z,51.00
2022-12-03T13:50:30.100Z,47.80
2022-12-03T13:53:03.522Z,45.10
2022-12-03T13:55:36.940Z,49.20
2022-12-03T13:58:09.892Z,47.40
2022-12-03T14:00:43.366Z,46.00
2022-12-03T14:03:16.126Z,54.70
2022-12-03T14:05:48.826Z,45.20
2022-12-03T14:08:22.059Z,46.90
2022-12-03T14:11:00.155Z,59.90
2022-12-03T14:13:33.585Z,48.20
2022-12-03T14:16:06.833Z,57.00
2022-12-03T14:18:40.274Z,44.20
2022-12-03T14:21:12.935Z,53.60
2022-12-03T14:23:45.654Z,61.40
2022-12-03T14:26:18.434Z,52.20
2022-12-03T14:28:51.103Z,55.90
2022-12-03T14:31:24.051Z,52.30
2022-12-03T14:33:56.828Z,50.50
2022-12-03T14:36:29.573Z,42.70
2022-12-03T14:39:02.313Z,63.50
2022-12-03T14:41:52.736Z,62.70
2022-12-03T14:44:25.534Z,53.10
2022-12-03T14:46:58.315Z,58.80
2022-12-03T14:49:31.041Z,49.40
2022-12-03T14:52:08.630Z,68.50
2022-12-03T14:54:45.252Z,60.10
2022-12-03T14:57:18.676Z,59.10
2022-12-03T14:59:51.558Z,57.80
2022-12-03T15:02:24.435Z,66.20
2022-12-03T15:04:57.315Z,59.20
2022-12-03T15:07:32.041Z,62.60
2022-12-03T15:10:05.162Z,56.60
2022-12-03T15:12:37.891Z,66.40
2022-12-03T15:15:12.945Z,55.70
2022-12-03T15:17:45.928Z,64.50
2022-12-03T15:20:19.204Z,55.40
2022-12-03T15:22:51.884Z,59.70
2022-12-03T15:25:25.739Z,60.60
2022-12-03T15:27:58.598Z,63.70
2022-12-03T15:30:32.180Z,69.50
2022-12-03T15:33:05.085Z,66.00
2022-12-03T15:35:37.833Z,75.10
2022-12-03T15:38:10.664Z,70.50
2022-12-03T15:40:43.496Z,52.10
2022-12-03T15:43:16.285Z,76.80
2022-12-03T15:45:49.188Z,64.80
2022-12-03T15:48:21.912Z,79.80
2022-12-03T15:50:54.681Z,76.70
2022-12-03T15:53:27.433Z,73.40
2022-12-03T15:56:00.215Z,76.30
2022-12-03T15:58:33.053Z,72.00
2022-12-03T16:01:05.902Z,68.80
2022-12-03T16:03:38.941Z,80.10
2022-12-03T16:06:12.782Z,67.80
2022-12-03T16:08:45.588Z,78.50
2022-12-03T16:11:18.322Z,67.00
2022-12-03T16:13:51.079Z,73.20
2022-12-03T16:16:24.149Z,79.10
2022-12-03T16:18:56.991Z,75.70
2022-12-03T16:21:30.257Z,79.00
2022-12-03T16:24:03.177Z,80.40
2022-12-03T16:26:35.949Z,73.20
2022-12-03T16:29:08.723Z,48.90
2022-12-03T16:31:41.480Z,76.60
2022-12-03T16:34:14.294Z,83.00
2022-12-03T16:36:47.076Z,84.40
2022-12-03T16:39:20.856Z,67.00
2022-12-03T16:41:53.572Z,72.60
2022-12-03T16:44:33.731Z,71.20
2022-12-03T16:47:06.562Z,73.80
2022-12-03T16:49:39.564Z,77.30
2022-12-03T16:52:12.483Z,78.60
2022-12-03T16:54:45.241Z,80.80
2022-12-03T16:57:18.218Z,77.70
2022-12-03T16:59:51.083Z,79.50
2022-12-03T17:02:24.202Z,79.50
2022-12-03T17:04:57.554Z,85.60
2022-12-03T17:07:31.023Z,71.00
2022-12-03T17:10:03.844Z,75.20
2022-12-03T17:13:07.716Z,104.00
2022-12-03T17:15:31.653Z,83.40
2022-12-03T17:18:04.773Z,74.30
2022-12-03T17:20:38.103Z,87.40
2022-12-03T17:23:12.055Z,100.40
2022-12-03T17:25:44.829Z,80.80
2022-12-03T17:28:17.548Z,89.90
2022-12-03T17:30:50.359Z,92.60
2022-12-03T17:33:23.159Z,83.10
2022-12-03T17:35:55.957Z,88.20
2022-12-03T17:38:58.862Z,71.60
2022-12-03T17:41:31.747Z,85.30
2022-12-03T17:44:10.229Z,79.00
2022-12-03T17:46:44.360Z,76.60
2022-12-03T17:49:17.351Z,70.70
2022-12-03T17:51:58.960Z,78.10
2022-12-03T17:54:55.200Z,85.60
2022-12-03T17:57:25.117Z,80.90
2022-12-03T17:59:57.965Z,78.40
2022-12-03T18:02:30.858Z,91.30
2022-12-03T18:05:03.941Z,76.90
2022-12-03T18:07:36.858Z,63.30
2022-12-03T18:10:11.447Z,78.90
2022-12-03T18:12:44.379Z,80.50
2022-12-03T18:15:17.778Z,83.70
2022-12-03T18:17:51.994Z,80.70
2022-12-03T18:20:25.135Z,87.00
2022-12-03T18:23:00.513Z,91.30
2022-12-03T18:25:35.926Z,79.60
2022-12-03T18:28:09.273Z,77.00
2022-12-03T18:30:45.123Z,67.90
2022-12-03T18:33:24.601Z,89.30
2022-12-03T18:35:59.885Z,90.10
2022-12-03T18:38:35.499Z,93.80
2022-12-03T18:41:08.823Z,93.10
2022-12-03T18:43:57.880Z,92.30
2022-12-03T18:46:52.414Z,85.90
2022-12-03T18:49:24.842Z,80.30
2022-12-03T18:51:59.899Z,87.70
2022-12-03T18:54:32.881Z,85.20
2022-12-03T18:57:06.036Z,76.10
2022-12-03T18:59:39.363Z,80.60
2022-12-03T19:02:32.477Z,94.00
2022-12-03T19:05:11.834Z,85.40
2022-12-03T19:07:44.858Z,93.10
2022-12-03T19:10:17.819Z,95.00
2022-12-03T19:12:51.260Z,91.10
2022-12-03T19:15:24.301Z,86.90
2022-12-03T19:17:57.068Z,96.90
2022-12-03T19:20:47.491Z,86.50
2022-12-03T19:23:20.379Z,75.60
2022-12-03T19:26:03.276Z,82.90
2022-12-03T19:28:36.727Z,86.20
2022-12-03T19:31:12.525Z,76.40
2022-12-03T19:33:45.967Z,72.10
2022-12-03T19:36:26.592Z,83.60
2022-12-03T19:39:01.608Z,99.70
2022-12-03T19:41:34.557Z,110.50
2022-12-03T19:44:10.929Z,100.90
2022-12-03T19:46:44.735Z,95.20
2022-12-03T19:49:18.780Z,75.80
2022-12-03T19:51:53.032Z,62.40
2022-12-03T19:54:26.294Z,67.90
2022-12-03T19:56:59.316Z,81.00
2022-12-03T19:59:32.303Z,78.20
2022-12-03T20:02:05.297Z,86.60
2022-12-03T20:04:38.616Z,86.40
2022-12-03T20:07:11.461Z,102.20
2022-12-03T20:09:44.584Z,84.80
2022-12-03T20:12:17.420Z,82.90
2022-12-03T20:14:51.846Z,69.70
2022-12-03T20:17:24.743Z,80.30
2022-12-03T20:19:57.800Z,77.60
2022-12-03T20:22:31.064Z,82.30
2022-12-03T20:25:05.235Z,65.40
2022-12-03T20:27:38.936Z,86.20
2022-12-03T20:30:13.951Z,74.00
2022-12-03T20:32:46.977Z,77.00
2022-12-03T20:35:20.105Z,80.70
2022-12-03T20:37:53.211Z,79.40
2022-12-03T20:40:26.058Z,79.30
2022-12-03T20:42:58.878Z,75.30
2022-12-03T20:45:31.802Z,77.00
2022-12-03T20:48:05.137Z,67.90
2022-12-03T20:50:40.521Z,74.20
2022-12-03T20:53:27.934Z,76.60
2022-12-03T20:56:03.062Z,73.60
2022-12-03T20:58:38.254Z,74.60
2022-12-03T21:01:16.708Z,71.10
2022-12-03T21:03:51.299Z,80.80
2022-12-03T21:06:25.567Z,82.20
2022-12-03T21:09:00.878Z,78.40
2022-12-03T21:11:36.124Z,68.40
2022-12-03T21:14:23.278Z,73.70
2022-12-03T21:17:11.916Z,75.90
2022-12-03T21:19:44.867Z,71.20
2022-12-03T21:27:56.150Z,82.70
2022-12-03T21:30:29.021Z,85.10
2022-12-03T21:33:02.026Z,80.10
2022-12-03T21:35:37.380Z,79.90
2022-12-03T21:38:11.137Z,73.30
2022-12-03T21:40:43.996Z,80.30
2022-12-03T21:43:18.013Z,72.90
2022-12-03T21:45:51.151Z,69.60
2022-12-03T21:48:24.081Z,82.70
2022-12-03T21:51:05.984Z,77.40
2022-12-03T21:53:46.701Z,68.80
2022-12-03T21:56:21.658Z,73.30
2022-12-03T21:58:54.564Z,74.40
2022-12-03T22:01:28.364Z,65.40
2022-12-03T22:04:01.147Z,70.80
2022-12-03T22:06:34.032Z,77.80
2022-12-03T22:09:07.061Z,74.80
2022-12-03T22:11:42.159Z,77.50
2022-12-03T22:14:15.082Z,75.20
2022-12-03T22:16:47.994Z,73.80
2022-12-03T22:19:22.715Z,68.90
2022-12-03T22:21:55.541Z,77.30
2022-12-03T22:24:28.298Z,76.90
2022-12-03T22:27:02.175Z,70.50
2022-12-03T22:29:35.349Z,81.60
2022-12-03T22:32:08.360Z,54.80
2022-12-03T22:34:42.473Z,79.60
2022-12-03T22:37:15.338Z,70.20
2022-12-03T22:39:48.296Z,66.70
2022-12-03T22:42:21.068Z,66.90
2022-12-03T22:44:53.916Z,64.80
2022-12-03T22:47:26.777Z,84.30
2022-12-03T22:49:59.808Z,79.80
2022-12-03T22:52:32.873Z,48.90
2022-12-03T22:55:05.971Z,62.40
2022-12-03T22:57:39.066Z,51.80
2022-12-03T23:00:15.241Z,66.60
2022-12-03T23:02:48.111Z,78.80
2022-12-03T23:05:21.073Z,40.40
2022-12-03T23:07:55.227Z,72.80
2022-12-03T23:10:32.533Z,70.40
2022-12-03T23:13:07.775Z,65.60
2022-12-03T23:15:44.901Z,71.10
2022-12-03T23:18:17.910Z,79.10
2022-12-03T23:20:53.847Z,76.20
2022-12-03T23:23:29.675Z,74.70
2022-12-03T23:26:04.542Z,67.70
2022-12-03T23:28:41.200Z,85.20
2022-12-03T23:31:23.580Z,55.20
2022-12-03T23:33:57.456Z,63.00
2022-12-03T23:36:33.888Z,68.60
2022-12-03T23:39:06.898Z,70.30
2022-12-03T23:41:41.077Z,76.70
2022-12-03T23:44:13.874Z,71.40
2022-12-03T23:46:46.765Z,71.50
2022-12-03T23:49:19.757Z,71.80
2022-12-03T23:51:52.569Z,70.10
2022-12-03T23:54:25.703Z,73.20
2022-12-03T23:56:58.489Z,70.00
2022-12-03T23:59:31.469Z,70.20
